KMEM

Memphis International Airport

Memphis, Tennessee, USA
METAR KMEM 141254Z 00000KT 10SM SCT200 OVC250 25/23 A3004 RMK AO2 SLP167 T02500228
Observed Flight Rules
Aug-14 @ 12:54 UTC (47 minutes ago) Visual Flight Rules
Visibility Clouds
10 miles
  • Scattered at 20,000' AGL
  • Overcast at 25,000' AGL
Temperatures Readings
Current 25°C / 77°F
Dewpoint 23°C / 73°F
Humidity 89%
Altimeter 30.04" Hg
Pressure 1016.7 hPa
Elevation 86
METAR KMEM 141254Z 00000KT 10SM SCT200 OVC250 25/23 A3004 RMK AO2 SLP167 T02500228
Observed Flight Rules
Aug-14 @ 12:54 UTC
(47 minutes ago)
VFR
Clouds
  • Scattered at 20,000' AGL
  • Overcast at 25,000' AGL
Temperature Dewpoint
25°C / 77°F 23°C / 73°F
Humidity Altimeter Pressure
89% 30.04" Hg 1016.7 hPa